createdAt,value
2023-01-25T00:00:34.685Z,6.7
2023-01-25T00:01:34.508Z,7.3
2023-01-25T00:02:34.581Z,6.3
2023-01-25T00:03:34.323Z,6.5
2023-01-25T00:04:33.996Z,6.4
2023-01-25T00:05:34.700Z,5.9
2023-01-25T00:06:34.527Z,6.7
2023-01-25T00:07:34.437Z,5.0
2023-01-25T00:08:34.193Z,5.9
2023-01-25T00:09:34.075Z,4.9
2023-01-25T00:10:34.762Z,4.7
2023-01-25T00:11:34.626Z,5.6
2023-01-25T00:12:34.518Z,5.2
2023-01-25T00:13:34.276Z,5.3
2023-01-25T00:14:34.244Z,5.8
2023-01-25T00:15:33.924Z,5.3
2023-01-25T00:16:35.288Z,6.6
2023-01-25T00:17:34.435Z,6.7
2023-01-25T00:18:34.318Z,6.6
2023-01-25T00:19:34.101Z,6.0
2023-01-25T00:20:33.918Z,6.7
2023-01-25T00:21:34.718Z,6.4
2023-01-25T00:22:34.576Z,6.4
2023-01-25T00:23:34.399Z,7.4
2023-01-25T00:24:34.216Z,6.5
2023-01-25T00:25:34.039Z,5.6
2023-01-25T00:26:34.790Z,5.7
2023-01-25T00:27:34.572Z,6.2
2023-01-25T00:28:34.691Z,5.6
2023-01-25T00:29:34.245Z,5.5
2023-01-25T00:30:34.073Z,6.8
2023-01-25T00:31:38.850Z,6.0
2023-01-25T00:32:45.538Z,5.5
2023-01-25T00:33:42.478Z,5.4
2023-01-25T00:34:37.964Z,6.1
2023-01-25T00:35:34.164Z,6.0
2023-01-25T00:36:40.898Z,6.3
2023-01-25T00:37:36.431Z,7.2
2023-01-25T00:38:34.572Z,5.0
2023-01-25T00:39:34.377Z,5.4
2023-01-25T00:40:34.106Z,5.4
2023-01-25T00:41:33.980Z,5.6
2023-01-25T00:42:34.743Z,5.4
2023-01-25T00:43:34.528Z,5.9
2023-01-25T00:44:34.494Z,5.6
2023-01-25T00:45:34.249Z,5.7
2023-01-25T00:46:34.507Z,7.5
2023-01-25T00:47:34.340Z,6.4
2023-01-25T00:48:34.151Z,5.9
2023-01-25T00:49:34.155Z,5.4
2023-01-25T00:50:36.091Z,6.3
2023-01-25T00:51:34.178Z,7.1
2023-01-25T00:52:34.060Z,7.7
2023-01-25T00:53:34.694Z,5.3
2023-01-25T00:54:34.519Z,6.2
2023-01-25T00:55:34.339Z,5.5
2023-01-25T00:56:34.178Z,6.1
2023-01-25T00:57:33.971Z,6.8
2023-01-25T00:58:34.729Z,5.3
2023-01-25T00:59:34.608Z,6.0
2023-01-25T01:00:34.382Z,6.0
2023-01-25T01:01:34.282Z,5.5
2023-01-25T01:02:34.053Z,5.3
2023-01-25T01:03:33.935Z,5.2
2023-01-25T01:04:34.673Z,5.7
2023-01-25T01:05:34.421Z,4.9
2023-01-25T01:06:34.721Z,5.4
2023-01-25T01:07:34.049Z,6.2
2023-01-25T01:08:34.663Z,6.1
2023-01-25T01:09:34.172Z,6.9
2023-01-25T01:10:34.330Z,7.3
2023-01-25T01:11:34.816Z,6.0
2023-01-25T01:12:34.607Z,5.1
2023-01-25T01:13:34.694Z,6.4
2023-01-25T01:14:34.366Z,5.6
2023-01-25T01:15:37.081Z,5.8
2023-01-25T01:16:34.033Z,6.1
2023-01-25T01:17:34.592Z,5.2
2023-01-25T01:18:35.217Z,6.9
2023-01-25T01:19:34.266Z,7.3
2023-01-25T01:21:34.033Z,5.2
2023-01-25T01:22:34.643Z,4.2
2023-01-25T01:23:34.822Z,5.4
2023-01-25T01:24:34.336Z,5.6
2023-01-25T01:25:34.179Z,6.2
2023-01-25T01:26:34.080Z,7.1
2023-01-25T01:27:34.691Z,4.8
2023-01-25T01:28:34.694Z,5.9
2023-01-25T01:29:33.957Z,7.5
2023-01-25T01:30:35.398Z,6.5
2023-01-25T01:31:34.728Z,6.3
2023-01-25T01:32:34.405Z,5.2
2023-01-25T01:33:35.373Z,5.0
2023-01-25T01:34:34.004Z,4.9
2023-01-25T01:35:34.768Z,5.6
2023-01-25T01:36:34.577Z,5.5
2023-01-25T01:37:34.343Z,6.9
2023-01-25T01:38:34.211Z,4.9
2023-01-25T01:39:34.024Z,5.4
2023-01-25T01:40:34.736Z,6.4
2023-01-25T01:41:35.199Z,6.2
2023-01-25T01:42:39.266Z,6.4
2023-01-25T01:43:34.394Z,7.1
2023-01-25T01:44:47.554Z,6.3
2023-01-25T01:45:45.359Z,6.2
2023-01-25T01:46:35.511Z,5.8
2023-01-25T01:47:39.271Z,6.2
2023-01-25T01:48:41.851Z,5.6
2023-01-25T01:49:34.131Z,5.8
2023-01-25T01:50:34.036Z,5.8
2023-01-25T01:51:52.863Z,5.7
2023-01-25T01:52:36.357Z,4.8
2023-01-25T01:53:34.329Z,5.8
2023-01-25T01:54:36.512Z,7.3
2023-01-25T01:55:34.950Z,4.9
2023-01-25T01:56:41.835Z,6.1
2023-01-25T01:57:36.602Z,5.1
2023-01-25T01:58:35.579Z,4.6
2023-01-25T01:59:45.375Z,4.1
2023-01-25T02:00:36.871Z,4.5
2023-01-25T02:01:34.948Z,5.3
2023-01-25T02:02:34.699Z,5.2
2023-01-25T02:03:34.820Z,6.2
2023-01-25T02:04:34.898Z,6.3
2023-01-25T02:05:44.877Z,5.3
2023-01-25T02:06:46.429Z,5.6
2023-01-25T02:07:36.192Z,5.4
2023-01-25T02:08:34.410Z,6.0
2023-01-25T02:09:35.053Z,5.3
2023-01-25T02:10:35.045Z,5.5
2023-01-25T02:11:34.885Z,5.8
2023-01-25T02:12:34.897Z,5.3
2023-01-25T02:13:34.813Z,6.1
2023-01-25T02:14:36.379Z,5.2
2023-01-25T02:15:41.931Z,5.5
2023-01-25T02:16:34.070Z,4.9
2023-01-25T02:17:35.602Z,5.9
2023-01-25T02:18:34.423Z,5.6
2023-01-25T02:19:40.028Z,5.2
2023-01-25T02:20:36.161Z,5.9
2023-01-25T02:21:38.796Z,5.1
2023-01-25T02:22:51.352Z,5.4
2023-01-25T02:23:48.455Z,5.1
2023-01-25T02:24:37.508Z,4.7
2023-01-25T02:25:34.118Z,5.5
2023-01-25T02:26:34.017Z,6.6
2023-01-25T02:27:36.878Z,6.9
2023-01-25T02:28:38.547Z,6.8
2023-01-25T02:29:34.878Z,5.3
2023-01-25T02:30:34.122Z,6.0
2023-01-25T02:31:34.243Z,5.6
2023-01-25T02:32:34.910Z,5.9
2023-01-25T02:34:34.401Z,5.2
2023-01-25T02:35:38.312Z,4.6
2023-01-25T02:36:34.563Z,5.9
2023-01-25T02:37:34.713Z,5.8
2023-01-25T02:38:36.556Z,5.8
2023-01-25T02:39:34.419Z,5.1
2023-01-25T02:40:37.638Z,4.7
2023-01-25T02:41:35.541Z,6.2
2023-01-25T02:42:35.030Z,5.7
2023-01-25T02:43:34.814Z,4.5
2023-01-25T02:44:34.680Z,5.5
2023-01-25T02:45:34.310Z,4.6
2023-01-25T02:46:35.371Z,5.0
2023-01-25T02:47:33.964Z,4.5
2023-01-25T02:48:34.638Z,6.0
2023-01-25T02:49:35.152Z,5.6
2023-01-25T02:50:34.294Z,4.3
2023-01-25T02:51:35.726Z,5.1
2023-01-25T02:52:33.977Z,5.5
2023-01-25T02:53:34.866Z,6.2
2023-01-25T02:54:34.510Z,6.0
2023-01-25T02:55:34.493Z,6.1
2023-01-25T02:56:34.187Z,4.5
2023-01-25T02:57:34.058Z,5.3
2023-01-25T02:58:34.721Z,5.0
2023-01-25T02:59:34.594Z,5.6
2023-01-25T03:00:34.476Z,5.4
2023-01-25T03:01:37.951Z,4.9
2023-01-25T03:02:34.385Z,5.8
2023-01-25T03:03:33.896Z,4.6
2023-01-25T03:04:34.651Z,5.3
2023-01-25T03:05:34.596Z,6.4
2023-01-25T03:06:34.729Z,4.9
2023-01-25T03:07:34.129Z,3.8
2023-01-25T03:08:34.658Z,5.4
2023-01-25T03:09:34.312Z,5.7
2023-01-25T03:10:34.192Z,4.5
2023-01-25T03:11:34.115Z,5.8
2023-01-25T03:12:34.598Z,5.9
2023-01-25T03:13:35.250Z,4.4
2023-01-25T03:14:34.263Z,5.3
2023-01-25T03:15:34.196Z,5.9
2023-01-25T03:16:34.448Z,5.5
2023-01-25T03:17:34.096Z,3.4
2023-01-25T03:18:34.369Z,4.9
2023-01-25T03:19:34.727Z,5.1
2023-01-25T03:20:34.554Z,5.6
2023-01-25T03:21:34.513Z,4.4
2023-01-25T03:22:34.283Z,4.7
2023-01-25T03:23:34.220Z,4.3
2023-01-25T03:24:33.865Z,5.6
2023-01-25T03:25:34.566Z,4.7
2023-01-25T03:26:34.388Z,5.0
2023-01-25T03:27:34.273Z,5.3
2023-01-25T03:28:34.091Z,5.1
2023-01-25T03:29:33.949Z,5.4
2023-01-25T03:30:34.674Z,5.7
2023-01-25T03:31:34.650Z,5.6
2023-01-25T03:32:34.328Z,4.6
2023-01-25T03:33:34.508Z,5.2
2023-01-25T03:34:33.998Z,4.9
2023-01-25T03:35:34.620Z,4.4
2023-01-25T03:36:34.450Z,4.6
2023-01-25T03:37:34.294Z,5.9
2023-01-25T03:38:34.201Z,5.9
2023-01-25T03:39:33.919Z,4.6
2023-01-25T03:40:34.683Z,4.2
2023-01-25T03:41:34.517Z,5.0
2023-01-25T03:42:34.410Z,4.7
2023-01-25T03:43:34.255Z,4.9
2023-01-25T03:44:34.049Z,5.9
2023-01-25T03:45:34.786Z,4.3
2023-01-25T03:46:34.616Z,5.0
2023-01-25T03:47:34.434Z,5.2
2023-01-25T03:48:34.207Z,4.5
2023-01-25T03:49:33.997Z,5.1
2023-01-25T03:50:34.768Z,5.1
2023-01-25T03:51:34.715Z,6.2
2023-01-25T03:52:54.367Z,5.6
2023-01-25T03:53:34.256Z,4.0
2023-01-25T03:54:34.080Z,4.4
2023-01-25T03:55:33.935Z,3.8
2023-01-25T03:56:35.105Z,4.4
2023-01-25T03:57:34.454Z,5.9
2023-01-25T03:58:34.939Z,4.2
2023-01-25T03:59:34.110Z,3.7
2023-01-25T04:00:34.144Z,4.5
2023-01-25T04:01:34.676Z,4.6
2023-01-25T04:02:34.570Z,4.3
2023-01-25T04:03:34.718Z,4.7
2023-01-25T04:04:34.450Z,5.1
2023-01-25T04:05:34.014Z,5.1
2023-01-25T04:06:34.704Z,4.6
2023-01-25T04:07:34.519Z,4.4
2023-01-25T04:08:34.648Z,4.6
2023-01-25T04:09:34.223Z,4.9
2023-01-25T04:10:34.431Z,5.5
2023-01-25T04:11:34.371Z,4.5
2023-01-25T04:12:34.087Z,5.1
2023-01-25T04:13:34.436Z,4.5
2023-01-25T04:14:44.039Z,3.8
2023-01-25T04:15:34.615Z,3.7
2023-01-25T04:16:34.372Z,4.5
2023-01-25T04:17:34.165Z,4.0
2023-01-25T04:18:34.000Z,3.3
2023-01-25T04:19:34.660Z,5.0
2023-01-25T04:20:34.491Z,4.4
2023-01-25T04:21:34.373Z,4.9
2023-01-25T04:22:34.147Z,5.1
2023-01-25T04:23:34.021Z,4.4
2023-01-25T04:24:34.770Z,4.7
2023-01-25T04:25:34.675Z,4.8
2023-01-25T04:26:34.406Z,4.1
2023-01-25T04:27:34.262Z,4.2
2023-01-25T04:28:34.303Z,3.8
2023-01-25T04:29:41.046Z,4.3
2023-01-25T04:30:34.626Z,4.9
2023-01-25T04:31:34.514Z,5.0
2023-01-25T04:32:34.956Z,3.7
2023-01-25T04:33:34.293Z,5.2
2023-01-25T04:34:33.931Z,5.7
2023-01-25T04:35:34.708Z,3.8
2023-01-25T04:36:34.574Z,3.4
2023-01-25T04:37:34.349Z,4.1
2023-01-25T04:38:34.228Z,4.0
2023-01-25T04:39:33.958Z,4.4
2023-01-25T04:40:34.660Z,3.9
2023-01-25T04:41:34.534Z,4.9
2023-01-25T04:42:34.378Z,4.1
2023-01-25T04:43:34.189Z,3.5
2023-01-25T04:44:34.032Z,3.8
2023-01-25T04:45:34.906Z,3.1
2023-01-25T04:46:34.565Z,3.5
2023-01-25T04:47:34.411Z,5.1
2023-01-25T04:48:34.270Z,4.5
2023-01-25T04:49:34.125Z,3.9
2023-01-25T04:50:33.908Z,3.3
2023-01-25T04:51:34.597Z,4.2
2023-01-25T04:52:34.459Z,3.6
2023-01-25T04:53:34.269Z,3.8
2023-01-25T04:54:34.132Z,3.3
2023-01-25T04:55:34.017Z,3.7
2023-01-25T04:56:34.661Z,3.7
2023-01-25T04:57:34.474Z,3.8
2023-01-25T04:58:34.308Z,4.5
2023-01-25T04:59:34.220Z,4.3
2023-01-25T05:00:34.118Z,3.8
2023-01-25T05:01:34.870Z,3.8
2023-01-25T05:02:34.741Z,4.9
2023-01-25T05:03:34.359Z,4.1
2023-01-25T05:04:34.200Z,3.4
2023-01-25T05:05:34.002Z,2.8
2023-01-25T05:06:34.768Z,3.9
2023-01-25T05:07:34.621Z,4.3
2023-01-25T05:08:34.396Z,4.8
2023-01-25T05:09:34.304Z,4.1
2023-01-25T05:10:34.077Z,3.2
2023-01-25T05:11:33.903Z,4.3
2023-01-25T05:12:34.588Z,4.6
2023-01-25T05:13:34.419Z,3.7
2023-01-25T05:14:34.244Z,4.6
2023-01-25T05:15:34.113Z,3.5
2023-01-25T05:16:33.973Z,5.4
2023-01-25T05:17:34.634Z,5.0
2023-01-25T05:18:47.531Z,4.6
2023-01-25T05:19:34.739Z,4.2
2023-01-25T05:20:34.228Z,4.1
2023-01-25T05:21:33.962Z,4.4
2023-01-25T05:22:34.621Z,3.6
2023-01-25T05:23:34.466Z,3.4
2023-01-25T05:24:34.461Z,3.0
2023-01-25T05:25:34.206Z,5.5
2023-01-25T05:26:33.978Z,3.3
2023-01-25T05:27:34.683Z,3.8
2023-01-25T05:28:34.563Z,4.3
2023-01-25T05:29:35.515Z,4.1
2023-01-25T05:30:34.543Z,4.4
2023-01-25T05:31:34.090Z,3.7
2023-01-25T05:32:33.888Z,2.9
2023-01-25T05:33:34.549Z,4.4
2023-01-25T05:34:34.814Z,4.4
2023-01-25T05:35:34.927Z,3.7
2023-01-25T05:36:34.074Z,3.8
2023-01-25T05:37:34.803Z,3.1
2023-01-25T05:38:34.617Z,3.8
2023-01-25T05:39:35.383Z,3.2
2023-01-25T05:40:34.301Z,4.7
2023-01-25T05:41:34.158Z,4.8
2023-01-25T05:42:33.946Z,3.3
2023-01-25T05:43:34.708Z,4.3
2023-01-25T05:44:34.443Z,3.5
2023-01-25T05:45:34.406Z,3.5
2023-01-25T05:46:34.132Z,3.1
2023-01-25T05:47:33.995Z,3.8
2023-01-25T05:48:34.737Z,3.8
2023-01-25T05:49:34.590Z,4.4
2023-01-25T05:50:34.503Z,4.1
2023-01-25T05:51:34.378Z,4.1
2023-01-25T05:52:34.098Z,4.5
2023-01-25T05:53:33.891Z,5.1
2023-01-25T05:54:34.604Z,4.5
2023-01-25T05:55:35.099Z,4.8
2023-01-25T05:56:34.203Z,3.3
2023-01-25T05:57:34.068Z,4.5
2023-01-25T05:58:33.936Z,3.6
2023-01-25T05:59:34.647Z,3.1
2023-01-25T06:00:34.544Z,3.6
2023-01-25T06:01:34.289Z,3.1
2023-01-25T06:02:34.232Z,4.2
2023-01-25T06:03:34.121Z,3.1
2023-01-25T06:04:34.664Z,3.9
2023-01-25T06:05:34.543Z,4.0
2023-01-25T06:06:34.373Z,3.5
2023-01-25T06:07:34.954Z,3.4
2023-01-25T06:08:34.490Z,4.0
2023-01-25T06:09:34.731Z,3.8
2023-01-25T06:10:35.069Z,5.0
2023-01-25T06:11:34.408Z,4.3
2023-01-25T06:12:34.224Z,3.8
2023-01-25T06:13:34.187Z,3.5
2023-01-25T06:14:33.879Z,3.1
2023-01-25T06:15:34.610Z,3.8
2023-01-25T06:16:34.390Z,3.6
2023-01-25T06:17:34.211Z,3.6
2023-01-25T06:18:34.659Z,3.4
2023-01-25T06:19:34.776Z,3.5
2023-01-25T06:20:34.600Z,3.4
2023-01-25T06:21:34.618Z,3.7
2023-01-25T06:22:34.317Z,3.7
2023-01-25T06:23:34.125Z,3.5
2023-01-25T06:24:34.029Z,4.2
2023-01-25T06:25:34.621Z,4.6
2023-01-25T06:26:34.471Z,3.3
2023-01-25T06:27:34.352Z,3.7
2023-01-25T06:28:35.094Z,3.4
2023-01-25T06:29:33.952Z,3.4
2023-01-25T06:30:34.779Z,3.1
2023-01-25T06:31:34.604Z,3.4
2023-01-25T06:32:34.356Z,4.4
2023-01-25T06:33:34.224Z,3.9
2023-01-25T06:34:33.975Z,3.9
2023-01-25T06:35:34.994Z,3.1
2023-01-25T06:36:34.490Z,3.6
2023-01-25T06:37:34.354Z,3.9
2023-01-25T06:38:34.217Z,3.3
2023-01-25T06:39:33.995Z,3.3
2023-01-25T06:40:34.736Z,3.6
2023-01-25T06:41:34.543Z,3.7
2023-01-25T06:42:34.423Z,4.7
2023-01-25T06:43:34.361Z,3.3
2023-01-25T06:44:34.082Z,2.9
2023-01-25T06:45:33.974Z,3.4
2023-01-25T06:46:34.637Z,4.4
2023-01-25T06:47:34.424Z,4.3
2023-01-25T06:48:34.665Z,4.1
2023-01-25T06:49:34.052Z,4.0
2023-01-25T06:50:33.879Z,3.1
2023-01-25T06:51:34.628Z,4.0
2023-01-25T06:52:34.572Z,3.8
2023-01-25T06:53:35.469Z,2.8
2023-01-25T06:54:34.103Z,3.9
2023-01-25T06:55:33.956Z,3.3
2023-01-25T06:56:34.668Z,3.7
2023-01-25T06:57:34.537Z,2.7
2023-01-25T06:58:34.361Z,3.1
2023-01-25T06:59:34.103Z,3.4
2023-01-25T07:00:33.980Z,3.2
2023-01-25T07:01:34.724Z,3.7
2023-01-25T07:02:35.330Z,3.4
2023-01-25T07:03:34.597Z,2.4
2023-01-25T07:04:34.166Z,3.4
2023-01-25T07:05:33.982Z,3.8
2023-01-25T07:06:34.695Z,3.3
2023-01-25T07:07:34.668Z,3.7
2023-01-25T07:08:34.564Z,7.8
2023-01-25T07:09:34.746Z,7.9
2023-01-25T07:10:34.028Z,6.0
2023-01-25T07:11:35.068Z,3.8
2023-01-25T07:12:34.556Z,3.2
2023-01-25T07:13:34.497Z,4.0
2023-01-25T07:14:34.374Z,4.8
2023-01-25T07:15:34.085Z,3.4
2023-01-25T07:16:33.966Z,3.5
2023-01-25T07:17:34.617Z,3.9
2023-01-25T07:18:34.465Z,5.4
2023-01-25T07:19:34.302Z,5.0
2023-01-25T07:20:34.149Z,5.4
2023-01-25T07:21:33.971Z,4.7
2023-01-25T07:22:34.715Z,6.0
2023-01-25T07:23:34.623Z,4.0
2023-01-25T07:24:34.408Z,5.4
2023-01-25T07:25:34.245Z,5.6
2023-01-25T07:26:34.084Z,5.6
2023-01-25T07:27:33.861Z,4.6
2023-01-25T07:28:34.540Z,4.3
2023-01-25T07:29:34.364Z,5.0
2023-01-25T07:30:34.277Z,4.9
2023-01-25T07:31:34.056Z,4.9
2023-01-25T07:32:33.883Z,4.3
2023-01-25T07:33:34.793Z,4.9
2023-01-25T07:34:34.553Z,4.4
2023-01-25T07:35:34.468Z,4.1
2023-01-25T07:36:34.236Z,3.8
2023-01-25T07:37:34.817Z,4.1
2023-01-25T07:38:35.112Z,3.9
2023-01-25T07:39:34.488Z,4.3
2023-01-25T07:40:34.522Z,4.1
2023-01-25T07:41:34.191Z,4.0
2023-01-25T07:42:34.939Z,2.9
2023-01-25T07:43:34.736Z,3.8
2023-01-25T07:44:34.576Z,3.6
2023-01-25T07:45:34.416Z,4.4
2023-01-25T07:46:34.343Z,3.3
2023-01-25T07:47:35.875Z,3.0
2023-01-25T07:48:34.775Z,3.3
2023-01-25T07:49:34.573Z,3.9
2023-01-25T07:50:34.409Z,3.8
2023-01-25T07:51:34.281Z,4.0
2023-01-25T07:52:34.100Z,3.9
2023-01-25T07:53:34.782Z,3.9
2023-01-25T07:54:34.631Z,2.7
2023-01-25T07:55:34.661Z,3.7
2023-01-25T07:56:35.258Z,3.3
2023-01-25T07:57:34.147Z,4.0
2023-01-25T07:58:34.877Z,4.2
2023-01-25T07:59:34.623Z,2.8
2023-01-25T08:00:34.467Z,4.4
2023-01-25T08:01:34.725Z,3.5
2023-01-25T08:02:34.254Z,4.1
2023-01-25T08:03:34.928Z,4.1
2023-01-25T08:04:34.787Z,4.0
2023-01-25T08:05:34.642Z,3.6
2023-01-25T08:06:36.186Z,3.6
2023-01-25T08:07:34.272Z,3.8
2023-01-25T08:08:35.599Z,3.8
2023-01-25T08:09:34.702Z,3.5
2023-01-25T08:10:34.602Z,3.1
2023-01-25T08:11:34.333Z,3.8
2023-01-25T08:12:34.327Z,3.6
2023-01-25T08:13:34.961Z,3.1
2023-01-25T08:14:34.758Z,2.6
2023-01-25T08:15:34.573Z,3.7
2023-01-25T08:16:34.435Z,4.8
2023-01-25T08:17:34.331Z,4.0
2023-01-25T08:18:35.899Z,3.7
2023-01-25T08:19:34.737Z,3.6
2023-01-25T08:20:34.621Z,3.8
2023-01-25T08:21:34.502Z,4.0
2023-01-25T08:22:34.296Z,3.2
2023-01-25T08:23:34.315Z,4.0
2023-01-25T08:24:34.971Z,3.6
2023-01-25T08:25:34.717Z,3.0
2023-01-25T08:26:34.909Z,4.0
2023-01-25T08:27:34.400Z,4.2
2023-01-25T08:28:34.327Z,2.3
2023-01-25T08:29:34.849Z,3.4
2023-01-25T08:30:34.859Z,3.1
2023-01-25T08:31:34.656Z,3.0
2023-01-25T08:32:37.106Z,3.2
2023-01-25T08:33:35.002Z,3.4
2023-01-25T08:34:34.418Z,3.5
2023-01-25T08:35:34.223Z,3.5
2023-01-25T08:36:34.131Z,3.5
2023-01-25T08:37:33.965Z,3.0
2023-01-25T08:38:34.760Z,3.6
2023-01-25T08:39:34.455Z,3.1
2023-01-25T08:40:36.991Z,4.0
2023-01-25T08:41:34.309Z,2.8
2023-01-25T08:42:33.917Z,3.0
2023-01-25T08:43:34.826Z,3.1
2023-01-25T08:44:34.486Z,2.7
2023-01-25T08:45:34.808Z,3.7
2023-01-25T08:46:34.123Z,3.5
2023-01-25T08:47:34.125Z,3.8
2023-01-25T08:48:34.677Z,3.0
2023-01-25T08:49:34.645Z,2.9
2023-01-25T08:50:34.359Z,3.8
2023-01-25T08:51:34.195Z,4.1
2023-01-25T08:52:33.983Z,4.0
2023-01-25T08:53:34.656Z,3.4
2023-01-25T08:54:34.527Z,2.7
2023-01-25T08:55:34.836Z,2.8
2023-01-25T08:56:35.721Z,3.2
2023-01-25T08:57:33.991Z,2.9
2023-01-25T08:58:36.344Z,2.4
2023-01-25T08:59:34.524Z,1.9
2023-01-25T09:00:34.444Z,2.3
2023-01-25T09:01:34.208Z,3.7
2023-01-25T09:02:34.004Z,3.0
2023-01-25T09:03:35.984Z,3.4
2023-01-25T09:04:34.526Z,2.5
2023-01-25T09:05:34.883Z,3.0
2023-01-25T09:06:34.161Z,2.8
2023-01-25T09:07:33.981Z,2.8
2023-01-25T09:08:35.202Z,2.9
2023-01-25T09:09:34.545Z,3.3
2023-01-25T09:10:34.500Z,3.7
2023-01-25T09:11:34.605Z,3.8
2023-01-25T09:12:34.592Z,2.5
2023-01-25T09:13:33.941Z,2.9
2023-01-25T09:14:34.613Z,2.6
2023-01-25T09:15:34.426Z,3.6
2023-01-25T09:16:34.253Z,2.4
2023-01-25T09:17:34.049Z,3.0
2023-01-25T09:18:35.607Z,3.1
2023-01-25T09:19:34.615Z,3.1
2023-01-25T09:20:34.777Z,3.2
2023-01-25T09:21:34.643Z,2.9
2023-01-25T09:22:34.306Z,2.9
2023-01-25T09:23:40.106Z,2.4
2023-01-25T09:24:36.902Z,2.9
2023-01-25T09:25:34.377Z,4.9
2023-01-25T09:26:36.210Z,3.9
2023-01-25T09:27:34.070Z,3.8
2023-01-25T09:28:33.919Z,3.8
2023-01-25T09:29:34.605Z,3.4
2023-01-25T09:30:46.570Z,3.2
2023-01-25T09:31:34.848Z,3.0
2023-01-25T09:32:34.367Z,3.6
2023-01-25T09:33:35.519Z,3.1
2023-01-25T09:34:35.359Z,2.8
2023-01-25T09:35:34.473Z,3.0
2023-01-25T09:36:34.377Z,3.0
2023-01-25T09:37:34.109Z,2.2
2023-01-25T09:38:34.954Z,3.1
2023-01-25T09:39:34.765Z,3.0
2023-01-25T09:40:38.036Z,2.0
2023-01-25T09:41:44.858Z,2.5
2023-01-25T09:42:50.886Z,2.8
2023-01-25T09:43:38.858Z,2.8
2023-01-25T09:44:57.351Z,2.5
2023-01-25T09:45:35.493Z,3.1
2023-01-25T09:46:41.414Z,2.1
2023-01-25T09:47:41.857Z,3.4
2023-01-25T09:48:38.836Z,2.6
2023-01-25T09:49:48.367Z,2.9
2023-01-25T09:50:35.689Z,2.9
2023-01-25T09:51:44.934Z,2.4
2023-01-25T09:52:56.890Z,2.3
2023-01-25T09:53:36.040Z,2.5
2023-01-25T09:54:46.583Z,4.1
2023-01-25T09:55:34.855Z,2.1
2023-01-25T09:56:35.567Z,3.1
2023-01-25T09:57:35.877Z,3.0
2023-01-25T09:58:37.251Z,4.2
2023-01-25T09:59:34.968Z,3.0
2023-01-25T10:00:40.206Z,3.1
2023-01-25T10:01:39.501Z,3.0
2023-01-25T10:02:56.945Z,2.5
2023-01-25T10:03:49.299Z,3.1
2023-01-25T10:04:36.892Z,2.4
2023-01-25T10:05:39.339Z,2.6
2023-01-25T10:06:39.451Z,2.5
2023-01-25T10:07:38.982Z,3.1
2023-01-25T10:08:44.337Z,2.4
2023-01-25T10:09:51.407Z,2.1
2023-01-25T10:10:41.639Z,2.2
2023-01-25T10:11:37.208Z,3.8
2023-01-25T10:12:37.439Z,2.4
2023-01-25T10:13:33.961Z,2.7
2023-01-25T10:14:34.719Z,3.5
2023-01-25T10:15:39.498Z,3.4
2023-01-25T10:16:50.907Z,3.1
2023-01-25T10:17:36.257Z,2.8
2023-01-25T10:18:39.919Z,2.1
2023-01-25T10:19:50.835Z,2.9
2023-01-25T10:20:39.509Z,2.7
2023-01-25T10:21:41.461Z,1.7
2023-01-25T10:22:35.680Z,2.7
2023-01-25T10:23:38.886Z,2.3
2023-01-25T10:24:42.379Z,3.4
2023-01-25T10:25:52.800Z,2.1
2023-01-25T10:26:35.484Z,3.5
2023-01-25T10:27:41.840Z,3.1
2023-01-25T10:28:38.813Z,2.8
2023-01-25T10:29:36.127Z,2.9
2023-01-25T10:30:40.607Z,3.3
2023-01-25T10:31:39.249Z,3.3
2023-01-25T10:32:35.812Z,2.8
2023-01-25T10:33:37.999Z,2.6
2023-01-25T10:34:55.022Z,2.9
2023-01-25T10:35:38.342Z,2.1
2023-01-25T10:36:34.559Z,2.5
2023-01-25T10:37:34.983Z,2.5
2023-01-25T10:38:40.498Z,2.9
2023-01-25T10:39:38.084Z,2.2
2023-01-25T10:40:39.413Z,1.8
2023-01-25T10:41:39.324Z,3.1
2023-01-25T10:42:38.586Z,4.0
2023-01-25T10:43:34.034Z,2.9
2023-01-25T10:44:36.137Z,2.6
2023-01-25T10:45:34.505Z,1.9
2023-01-25T10:46:34.967Z,2.8
2023-01-25T10:47:35.979Z,2.8
2023-01-25T10:48:35.524Z,2.6
2023-01-25T10:49:45.348Z,3.2
2023-01-25T10:50:39.552Z,2.9
2023-01-25T10:51:34.429Z,2.6
2023-01-25T10:52:34.278Z,2.1
2023-01-25T10:53:35.901Z,3.9
2023-01-25T10:54:34.727Z,2.6
2023-01-25T10:55:34.594Z,2.4
2023-01-25T10:56:37.786Z,1.8
2023-01-25T10:57:34.584Z,2.9
2023-01-25T10:58:35.543Z,2.3
2023-01-25T10:59:35.477Z,1.8
2023-01-25T11:00:38.733Z,3.3
2023-01-25T11:01:35.927Z,2.4
2023-01-25T11:02:36.508Z,2.1
2023-01-25T11:03:36.364Z,2.7
2023-01-25T11:04:35.131Z,2.3
2023-01-25T11:05:35.643Z,2.5
2023-01-25T11:06:35.550Z,3.1
2023-01-25T11:07:34.232Z,2.8
2023-01-25T11:08:38.380Z,2.7
2023-01-25T11:09:35.790Z,2.2
2023-01-25T11:10:36.193Z,2.6
2023-01-25T11:11:36.032Z,2.2
2023-01-25T11:12:34.267Z,2.0
2023-01-25T11:13:34.152Z,2.9
2023-01-25T11:14:33.921Z,2.9
2023-01-25T11:15:34.667Z,2.1
2023-01-25T11:16:36.423Z,3.0
2023-01-25T11:17:34.234Z,2.8
2023-01-25T11:18:34.085Z,4.0
2023-01-25T11:19:34.944Z,2.5
2023-01-25T11:20:34.658Z,2.4
2023-01-25T11:21:34.495Z,1.9
2023-01-25T11:22:34.344Z,3.2
2023-01-25T11:23:34.140Z,2.7
2023-01-25T11:24:34.558Z,2.7
2023-01-25T11:25:34.625Z,2.8
2023-01-25T11:26:35.775Z,2.1
2023-01-25T11:27:34.233Z,2.6
2023-01-25T11:28:34.052Z,2.5
2023-01-25T11:29:33.870Z,1.6
2023-01-25T11:30:34.690Z,3.0
2023-01-25T11:31:34.561Z,2.0
2023-01-25T11:32:34.655Z,2.0
2023-01-25T11:33:34.183Z,1.9
2023-01-25T11:34:33.934Z,3.0
2023-01-25T11:35:35.542Z,3.0
2023-01-25T11:36:39.469Z,2.7
2023-01-25T11:37:44.935Z,2.1
2023-01-25T11:38:34.980Z,1.9
2023-01-25T11:39:44.404Z,2.6
2023-01-25T11:40:48.947Z,2.2
2023-01-25T11:41:39.403Z,3.2
2023-01-25T11:42:56.902Z,3.1
2023-01-25T11:43:56.964Z,2.2
2023-01-25T11:44:41.887Z,1.9
2023-01-25T11:45:49.415Z,2.1
2023-01-25T11:46:40.577Z,2.4
2023-01-25T11:47:44.920Z,1.7
2023-01-25T11:48:41.912Z,2.5
2023-01-25T11:49:41.854Z,2.1
2023-01-25T11:50:42.358Z,2.3
2023-01-25T11:51:39.451Z,2.6
2023-01-25T11:52:52.806Z,2.6
2023-01-25T11:53:39.470Z,3.0
2023-01-25T11:54:44.869Z,2.0
2023-01-25T11:55:38.945Z,2.6
2023-01-25T11:56:53.840Z,2.3
2023-01-25T11:57:50.399Z,2.8
2023-01-25T11:58:57.346Z,2.6
2023-01-25T11:59:56.898Z,3.6
2023-01-25T12:00:41.880Z,2.0
2023-01-25T12:01:52.336Z,3.0
2023-01-25T12:02:51.831Z,4.1
2023-01-25T12:03:52.881Z,2.6
2023-01-25T12:04:39.408Z,3.1
2023-01-25T12:05:41.891Z,3.2
2023-01-25T12:06:44.923Z,2.0
2023-01-25T12:07:44.584Z,3.9
2023-01-25T12:08:48.394Z,2.4
2023-01-25T12:09:44.939Z,1.4
2023-01-25T12:10:52.292Z,2.9
2023-01-25T12:11:44.857Z,2.4
2023-01-25T12:12:44.367Z,3.5
2023-01-25T12:13:51.348Z,2.8
2023-01-25T12:14:56.915Z,2.9
2023-01-25T12:15:52.372Z,3.4
2023-01-25T12:16:39.007Z,4.4
2023-01-25T12:17:51.803Z,2.5
2023-01-25T12:18:52.791Z,3.1
2023-01-25T12:19:47.875Z,2.1
2023-01-25T12:20:41.851Z,2.8
2023-01-25T12:21:47.878Z,3.2
2023-01-25T12:22:38.806Z,2.5
2023-01-25T12:23:45.431Z,2.8
2023-01-25T12:24:39.571Z,2.8
2023-01-25T12:25:41.899Z,4.7
2023-01-25T12:26:41.890Z,4.1
2023-01-25T12:27:56.389Z,3.2
2023-01-25T12:28:51.014Z,3.3
2023-01-25T12:29:38.036Z,2.5
2023-01-25T12:30:45.015Z,2.9
2023-01-25T12:31:41.956Z,4.4
2023-01-25T12:32:38.170Z,1.7
2023-01-25T12:33:39.897Z,1.7
2023-01-25T12:34:38.791Z,3.2
2023-01-25T12:35:39.373Z,3.0
2023-01-25T12:36:43.531Z,3.7
2023-01-25T12:37:37.093Z,4.6
2023-01-25T12:38:39.128Z,3.0
2023-01-25T12:39:39.438Z,3.0
2023-01-25T12:40:39.281Z,2.0
2023-01-25T12:41:52.315Z,3.3
2023-01-25T12:42:36.766Z,3.3
2023-01-25T12:43:37.287Z,3.3
2023-01-25T12:44:39.525Z,4.3
2023-01-25T12:45:36.797Z,4.0
2023-01-25T12:46:44.595Z,5.0
2023-01-25T12:47:39.389Z,2.8
2023-01-25T12:48:36.515Z,3.6
2023-01-25T12:49:38.993Z,2.5
2023-01-25T12:50:37.915Z,2.4
2023-01-25T12:51:38.971Z,3.2
2023-01-25T12:52:36.512Z,3.5
2023-01-25T12:53:41.899Z,4.1
2023-01-25T12:54:37.137Z,3.1
2023-01-25T12:55:34.021Z,2.8
2023-01-25T12:56:39.713Z,3.1
2023-01-25T12:57:42.416Z,2.2
2023-01-25T12:58:39.332Z,2.4
2023-01-25T12:59:53.918Z,2.2
2023-01-25T13:00:39.055Z,4.1
2023-01-25T13:01:47.588Z,1.9
2023-01-25T13:02:51.382Z,3.2
2023-01-25T13:03:41.955Z,1.8
2023-01-25T13:04:47.878Z,2.9
2023-01-25T13:05:50.875Z,3.9
2023-01-25T13:06:41.426Z,4.1
2023-01-25T13:07:39.100Z,4.2
2023-01-25T13:08:52.835Z,2.0
2023-01-25T13:09:56.892Z,1.9
2023-01-25T13:10:39.080Z,2.2
2023-01-25T13:11:36.154Z,2.3
2023-01-25T13:12:53.927Z,3.9
2023-01-25T13:13:34.541Z,3.8
2023-01-25T13:14:35.733Z,3.4
2023-01-25T13:15:41.626Z,2.4
2023-01-25T13:16:39.223Z,3.1
2023-01-25T13:17:36.639Z,2.5
2023-01-25T13:18:35.682Z,3.7
2023-01-25T13:19:39.305Z,4.1
2023-01-25T13:20:44.878Z,3.7
2023-01-25T13:21:38.608Z,2.5
2023-01-25T13:22:47.483Z,1.9
2023-01-25T13:23:41.558Z,2.6
2023-01-25T13:24:39.263Z,3.5
2023-01-25T13:25:34.219Z,3.2
2023-01-25T13:26:38.076Z,2.3
2023-01-25T13:27:34.774Z,3.5
2023-01-25T13:28:41.741Z,3.0
2023-01-25T13:29:41.870Z,2.5
2023-01-25T13:30:34.648Z,2.6
2023-01-25T13:31:52.553Z,2.5
2023-01-25T13:32:38.881Z,3.9
2023-01-25T13:33:34.854Z,3.1
2023-01-25T13:34:39.534Z,2.5
2023-01-25T13:35:38.647Z,3.4
2023-01-25T13:36:41.948Z,2.9
2023-01-25T13:37:34.404Z,2.6
2023-01-25T13:38:34.724Z,2.8
2023-01-25T13:39:39.428Z,2.2
2023-01-25T13:40:35.090Z,2.8
2023-01-25T13:41:34.201Z,2.4
2023-01-25T13:42:35.332Z,2.8
2023-01-25T13:43:34.713Z,2.3
2023-01-25T13:44:36.145Z,3.5
2023-01-25T13:45:34.959Z,3.6
2023-01-25T13:46:34.224Z,3.0
2023-01-25T13:47:35.242Z,2.6
2023-01-25T13:48:37.471Z,4.0